Time;durP1;ratioP1;P1;durP2;ratioP2;P2;SDS_P1;SDS_P2;PMS_P1;PMS_P2;Temp;Humidity;BMP_temperature;BMP_pressure;BME280_temperature;BME280_humidity;BME280_pressure;Samples;Min_cycle;Max_cycle;Signal;HPM_P1;HPM_P2
2021/09/19 00:01:47;;;;;;;5.73;5.13;;;12.20;1.00;;;;;;5031160;28;20224;-56
2021/09/19 00:04:14;;;;;;;8.20;4.37;;;12.20;1.00;;;;;;5031684;28;20209;-57
2021/09/19 00:06:41;;;;;;;5.43;4.10;;;12.20;1.00;;;;;;5034092;28;20321;-60
2021/09/19 00:09:08;;;;;;;6.80;4.40;;;12.20;1.00;;;;;;5034984;28;20346;-59
2021/09/19 00:11:34;;;;;;;4.80;4.40;;;12.20;1.00;;;;;;5034744;28;20673;-55
2021/09/19 00:14:01;;;;;;;4.47;4.03;;;12.20;1.00;;;;;;5034931;28;20211;-59
2021/09/19 00:16:28;;;;;;;5.57;4.07;;;12.20;1.00;;;;;;5034606;28;20288;-58
2021/09/19 00:18:56;;;;;;;4.80;4.20;;;12.20;1.00;;;;;;5035041;28;20213;-57
2021/09/19 00:21:22;;;;;;;4.93;4.40;;;12.20;1.00;;;;;;5034765;28;20263;-58
2021/09/19 00:23:49;;;;;;;5.57;3.97;;;12.20;1.00;;;;;;5034801;28;20213;-58
2021/09/19 00:26:16;;;;;;;5.93;3.67;;;12.20;1.00;;;;;;5034412;28;20715;-58
2021/09/19 00:28:43;;;;;;;4.60;4.10;;;12.10;1.00;;;;;;5034511;28;20214;-58
2021/09/19 00:31:09;;;;;;;4.77;4.07;;;12.10;1.00;;;;;;5034462;28;20214;-58
2021/09/19 00:33:36;;;;;;;4.57;4.00;;;12.10;1.00;;;;;;5034517;28;20208;-58
2021/09/19 00:36:04;;;;;;;6.17;4.07;;;12.10;1.00;;;;;;5034418;28;20253;-57
2021/09/19 00:38:31;;;;;;;5.77;3.87;;;12.10;1.00;;;;;;5034605;28;20213;-58
2021/09/19 00:40:58;;;;;;;4.20;3.80;;;12.10;1.00;;;;;;5034870;28;20255;-59
2021/09/19 00:43:24;;;;;;;6.00;4.03;;;12.10;1.00;;;;;;5034078;28;20262;-57
2021/09/19 00:45:51;;;;;;;4.77;4.27;;;12.00;1.00;;;;;;5034322;28;20623;-58
2021/09/19 00:48:18;;;;;;;6.40;4.20;;;12.00;1.00;;;;;;5034334;28;20635;-55
2021/09/19 00:50:44;;;;;;;6.03;4.10;;;12.00;1.00;;;;;;5034203;28;20259;-58
2021/09/19 00:53:14;;;;;;;6.30;4.30;;;12.00;1.00;;;;;;5034406;28;20237;-58
2021/09/19 00:55:44;;;;;;;6.53;5.00;;;11.90;1.00;;;;;;5033992;28;20214;-59
2021/09/19 00:58:13;;;;;;;5.97;4.07;;;11.90;1.00;;;;;;5033941;28;20685;-56
2021/09/19 01:00:42;;;;;;;5.30;4.40;;;11.90;1.00;;;;;;5034129;28;20212;-58
2021/09/19 01:03:09;;;;;;;4.33;3.80;;;11.90;1.00;;;;;;5034035;28;20720;-56
2021/09/19 01:05:36;;;;;;;5.03;4.53;;;11.90;1.00;;;;;;5033871;28;20260;-52
2021/09/19 01:08:03;;;;;;;5.30;4.80;;;11.80;1.00;;;;;;5033920;28;20258;-60
2021/09/19 01:10:31;;;;;;;5.17;4.67;;;11.80;1.00;;;;;;5033782;28;20210;-59
2021/09/19 01:12:58;;;;;;;6.50;4.97;;;11.80;1.00;;;;;;5033667;28;20736;-55
2021/09/19 01:15:26;;;;;;;5.30;4.80;;;11.80;1.00;;;;;;5033533;28;20265;-53
2021/09/19 01:17:53;;;;;;;7.17;5.70;;;11.70;1.00;;;;;;5033533;28;20241;-56
2021/09/19 01:20:20;;;;;;;5.87;5.30;;;11.70;1.00;;;;;;5033674;28;20643;-58
2021/09/19 01:22:59;;;;;;;6.50;5.90;;;11.70;1.00;;;;;;5033427;28;20223;-51
2021/09/19 01:25:27;;;;;;;6.33;5.73;;;11.70;1.00;;;;;;5033446;28;20722;-54
2021/09/19 01:27:54;;;;;;;7.13;5.70;;;11.70;1.00;;;;;;5033417;28;20232;-56
2021/09/19 01:30:20;;;;;;;6.90;5.57;;;11.60;1.00;;;;;;5033329;28;20206;-53
2021/09/19 01:32:47;;;;;;;6.10;5.30;;;11.60;1.00;;;;;;5033366;28;20624;-52
2021/09/19 01:35:14;;;;;;;6.13;5.23;;;11.60;1.00;;;;;;5033179;28;20207;-52
2021/09/19 01:37:41;;;;;;;6.10;5.50;;;11.60;1.00;;;;;;5033114;28;20284;-58
2021/09/19 01:40:11;;;;;;;7.77;6.20;;;11.60;1.00;;;;;;5033538;28;20317;-58
2021/09/19 01:42:40;;;;;;;7.73;5.90;;;11.60;1.00;;;;;;5033288;28;20230;-50
2021/09/19 01:45:08;;;;;;;8.60;6.00;;;11.60;1.00;;;;;;5033043;28;20899;-56
2021/09/19 01:47:35;;;;;;;6.50;5.80;;;11.60;1.00;;;;;;5033140;28;20710;-58
2021/09/19 01:50:02;;;;;;;6.27;5.40;;;11.60;1.00;;;;;;5032828;28;20686;-58
2021/09/19 01:52:30;;;;;;;6.40;5.50;;;11.50;1.00;;;;;;5033187;28;20579;-56
2021/09/19 01:54:57;;;;;;;6.20;5.60;;;11.60;1.00;;;;;;5032947;28;20302;-54
2021/09/19 01:57:24;;;;;;;6.30;5.50;;;11.50;1.00;;;;;;5032995;28;20238;-57
2021/09/19 01:59:54;;;;;;;10.70;6.40;;;11.50;1.00;;;;;;5032914;28;20576;-56
2021/09/19 02:02:21;;;;;;;8.60;6.27;;;11.50;1.00;;;;;;5032812;28;20276;-54
2021/09/19 02:04:53;;;;;;;8.17;6.20;;;11.40;1.00;;;;;;5032384;28;20253;-55
2021/09/19 02:07:19;;;;;;;7.40;6.50;;;11.50;1.00;;;;;;5032711;28;20709;-54
2021/09/19 02:09:46;;;;;;;7.00;6.10;;;11.40;1.00;;;;;;5032846;28;20587;-56
2021/09/19 02:12:14;;;;;;;6.70;6.00;;;11.50;1.00;;;;;;5032756;28;20203;-52
2021/09/19 02:14:41;;;;;;;7.20;5.57;;;11.50;1.00;;;;;;5032528;28;20206;-54
2021/09/19 02:17:09;;;;;;;8.10;6.73;;;11.40;1.00;;;;;;5032394;28;20321;-54
2021/09/19 02:19:36;;;;;;;11.30;6.83;;;11.40;1.00;;;;;;5032702;28;20218;-58
2021/09/19 02:22:04;;;;;;;8.60;7.80;;;11.30;1.00;;;;;;5032544;28;20624;-56
2021/09/19 02:24:30;;;;;;;9.30;7.73;;;11.30;1.00;;;;;;5032393;28;20211;-56
2021/09/19 02:26:57;;;;;;;9.87;7.60;;;11.30;4.10;;;;;;5032212;28;20231;-57
2021/09/19 02:29:24;;;;;;;8.63;7.73;;;11.30;6.90;;;;;;5031832;28;20209;-57
2021/09/19 02:31:50;;;;;;;9.90;7.83;;;11.20;19.60;;;;;;5032143;28;20276;-57
2021/09/19 02:34:18;;;;;;;8.50;7.70;;;11.30;10.90;;;;;;5032495;28;20211;-53
2021/09/19 02:36:45;;;;;;;8.87;7.60;;;11.20;18.20;;;;;;5032010;28;20276;-55
2021/09/19 02:39:12;;;;;;;10.00;7.47;;;11.20;21.70;;;;;;5032386;28;20264;-56
2021/09/19 02:41:39;;;;;;;8.17;7.17;;;11.20;17.90;;;;;;5032251;28;20206;-56
2021/09/19 02:44:07;;;;;;;9.43;7.80;;;11.20;28.60;;;;;;5031997;28;20230;-54
2021/09/19 02:46:34;;;;;;;9.83;8.03;;;11.20;49.80;;;;;;5031866;28;20591;-54
2021/09/19 02:49:00;;;;;;;10.90;7.97;;;11.10;78.30;;;;;;5032214;28;20264;-56
2021/09/19 02:51:28;;;;;;;11.13;8.27;;;11.10;99.70;;;;;;5032283;28;20256;-55
2021/09/19 02:53:55;;;;;;;9.83;8.03;;;11.10;99.90;;;;;;5032006;28;20206;-55
2021/09/19 02:56:22;;;;;;;8.97;8.00;;;11.20;99.90;;;;;;5031942;28;20292;-51
2021/09/19 02:58:48;;;;;;;13.93;9.03;;;11.10;99.90;;;;;;5031646;28;20268;-57
2021/09/19 03:01:15;;;;;;;10.80;9.23;;;11.00;99.90;;;;;;5032111;28;20268;-56
2021/09/19 03:03:42;;;;;;;13.93;9.27;;;11.00;99.90;;;;;;5031933;28;20287;-56
2021/09/19 03:06:09;;;;;;;13.03;9.47;;;11.00;99.90;;;;;;5031713;28;20273;-52
2021/09/19 03:08:37;;;;;;;11.97;9.23;;;11.00;99.90;;;;;;5031995;28;20214;-56
2021/09/19 03:11:03;;;;;;;11.93;9.70;;;11.00;99.90;;;;;;5031821;28;20206;-57
2021/09/19 03:13:30;;;;;;;11.10;9.47;;;11.00;99.90;;;;;;5031772;28;20727;-55
2021/09/19 03:15:57;;;;;;;12.63;10.13;;;11.00;99.90;;;;;;5031817;28;20205;-54
2021/09/19 03:18:23;;;;;;;12.13;9.83;;;11.00;99.90;;;;;;5032008;28;20229;-56
2021/09/19 03:20:50;;;;;;;13.27;9.30;;;10.90;99.90;;;;;;5031940;28;20559;-57
2021/09/19 03:23:17;;;;;;;13.20;9.60;;;10.90;99.90;;;;;;5031760;28;20225;-57
2021/09/19 03:25:45;;;;;;;9.50;8.30;;;11.00;99.90;;;;;;5031454;28;20210;-56
2021/09/19 03:28:11;;;;;;;9.73;8.50;;;11.00;99.90;;;;;;5031807;28;20221;-55
2021/09/19 03:30:38;;;;;;;12.00;9.03;;;11.00;99.90;;;;;;5031603;28;20214;-56
2021/09/19 03:33:05;;;;;;;11.43;8.83;;;10.90;99.90;;;;;;5031228;28;20206;-55
2021/09/19 03:35:32;;;;;;;13.13;8.73;;;10.90;99.90;;;;;;5031368;28;20674;-58
2021/09/19 03:37:58;;;;;;;9.20;7.73;;;10.90;99.90;;;;;;5031308;28;20717;-57
2021/09/19 03:40:25;;;;;;;9.17;7.13;;;11.00;99.90;;;;;;5032489;28;20202;-50
2021/09/19 03:42:54;;;;;;;10.63;7.13;;;11.00;99.90;;;;;;5035288;28;20226;-56
2021/09/19 03:45:23;;;;;;;10.03;7.90;;;10.90;99.90;;;;;;5035383;28;20206;-56
2021/09/19 03:47:50;;;;;;;9.50;7.70;;;10.80;99.90;;;;;;5035427;28;20253;-57
2021/09/19 03:50:17;;;;;;;9.27;7.97;;;10.80;99.90;;;;;;5035399;28;20268;-56
2021/09/19 03:52:44;;;;;;;8.90;6.70;;;10.90;99.90;;;;;;5035218;28;20289;-58
2021/09/19 03:55:11;;;;;;;7.90;7.10;;;10.90;99.90;;;;;;5034944;28;20627;-55
2021/09/19 03:57:38;;;;;;;8.77;7.63;;;10.90;99.90;;;;;;5034989;28;20238;-57
2021/09/19 04:00:08;;;;;;;7.97;6.90;;;10.90;99.90;;;;;;5035219;28;20202;-58
2021/09/19 04:02:34;;;;;;;9.23;7.30;;;10.90;99.90;;;;;;5034997;28;20210;-58
2021/09/19 04:05:01;;;;;;;8.47;7.10;;;10.90;99.90;;;;;;5034807;28;20214;-57
2021/09/19 04:07:27;;;;;;;8.60;7.33;;;10.80;99.90;;;;;;5035115;28;20222;-58
2021/09/19 04:09:54;;;;;;;9.90;7.47;;;10.80;99.40;;;;;;5034761;28;20672;-54
2021/09/19 04:12:21;;;;;;;10.97;7.63;;;10.80;95.70;;;;;;5035156;28;20617;-57
2021/09/19 04:14:47;;;;;;;11.63;7.80;;;10.80;88.80;;;;;;5034534;28;20740;-57
2021/09/19 04:17:15;;;;;;;7.90;7.10;;;10.70;76.30;;;;;;5034821;28;20280;-57
2021/09/19 04:19:42;;;;;;;10.53;7.90;;;10.70;61.80;;;;;;5034754;28;20252;-57
2021/09/19 04:22:09;;;;;;;8.70;7.50;;;10.70;50.90;;;;;;5034574;28;20260;-58
2021/09/19 04:24:35;;;;;;;10.23;8.23;;;10.70;42.20;;;;;;5034358;28;20284;-55
2021/09/19 04:27:02;;;;;;;9.10;7.60;;;10.70;37.90;;;;;;5034912;28;20226;-55
2021/09/19 04:29:29;;;;;;;10.47;8.70;;;10.60;39.50;;;;;;5034759;28;20206;-57
2021/09/19 04:31:55;;;;;;;16.23;9.00;;;10.60;42.30;;;;;;5034540;28;20624;-54
2021/09/19 04:34:23;;;;;;;10.90;8.77;;;10.60;45.70;;;;;;5034472;28;20206;-57
2021/09/19 04:36:50;;;;;;;12.00;9.07;;;10.60;45.80;;;;;;5033977;28;20756;-59
2021/09/19 04:39:16;;;;;;;12.80;8.93;;;10.60;53.60;;;;;;5034712;28;20210;-57
2021/09/19 04:41:43;;;;;;;11.20;8.87;;;10.60;61.70;;;;;;5034560;28;20218;-56
2021/09/19 04:44:10;;;;;;;11.67;9.27;;;10.60;70.50;;;;;;5034281;28;20226;-56
2021/09/19 04:46:36;;;;;;;12.10;9.03;;;10.60;75.60;;;;;;5034133;28;20304;-54
2021/09/19 04:49:03;;;;;;;10.93;8.30;;;10.60;78.80;;;;;;5034300;28;20256;-57
2021/09/19 04:51:31;;;;;;;11.97;8.17;;;10.60;76.20;;;;;;5033698;28;20670;-58
2021/09/19 04:53:58;;;;;;;10.00;8.10;;;10.60;76.40;;;;;;5034464;28;20207;-56
2021/09/19 04:56:24;;;;;;;11.40;9.30;;;10.60;77.00;;;;;;5034067;28;20640;-55
2021/09/19 04:58:51;;;;;;;13.77;8.93;;;10.60;79.40;;;;;;5033861;28;20245;-54
2021/09/19 05:01:18;;;;;;;10.67;8.83;;;10.60;92.70;;;;;;5034005;28;20214;-58
2021/09/19 05:03:44;;;;;;;12.07;8.83;;;10.60;94.50;;;;;;5033818;28;20222;-56
2021/09/19 05:06:12;;;;;;;12.70;9.20;;;10.50;95.80;;;;;;5033498;28;20835;-55
2021/09/19 05:08:40;;;;;;;10.93;8.73;;;10.60;96.30;;;;;;5034312;28;20268;-57
2021/09/19 05:11:07;;;;;;;11.27;9.00;;;10.60;96.30;;;;;;5033983;28;20214;-57
2021/09/19 05:13:33;;;;;;;12.33;8.67;;;10.60;96.10;;;;;;5033865;28;20214;-59
2021/09/19 05:16:00;;;;;;;13.60;8.67;;;10.60;92.00;;;;;;5033516;28;20709;-59
2021/09/19 05:18:27;;;;;;;11.90;8.73;;;10.60;91.90;;;;;;5033495;28;20264;-59
2021/09/19 05:20:53;;;;;;;11.07;8.37;;;10.60;90.10;;;;;;5033419;28;20260;-59
2021/09/19 05:23:20;;;;;;;11.93;9.37;;;10.60;93.40;;;;;;5033778;28;20277;-57
2021/09/19 05:25:48;;;;;;;10.83;8.83;;;10.60;96.60;;;;;;5033228;28;20268;-58
2021/09/19 05:28:15;;;;;;;12.50;9.00;;;10.70;95.50;;;;;;5033452;28;20257;-58
2021/09/19 05:30:41;;;;;;;10.97;8.70;;;10.70;93.60;;;;;;5033455;28;20210;-53
2021/09/19 05:33:08;;;;;;;13.40;9.07;;;10.70;90.60;;;;;;5033713;28;20214;-58
2021/09/19 05:35:35;;;;;;;10.67;8.30;;;10.70;92.10;;;;;;5033445;28;20264;-58
2021/09/19 05:38:05;;;;;;;12.37;8.67;;;10.70;95.90;;;;;;5033872;28;20280;-57
2021/09/19 05:40:32;;;;;;;13.13;8.83;;;10.70;93.20;;;;;;5033606;28;20745;-57
2021/09/19 05:43:01;;;;;;;13.27;8.60;;;10.70;93.60;;;;;;5033163;28;20264;-58
2021/09/19 05:45:28;;;;;;;10.10;7.83;;;10.70;96.30;;;;;;5033256;28;20646;-56
2021/09/19 05:47:55;;;;;;;12.07;8.13;;;10.70;98.00;;;;;;5032971;28;20226;-57
2021/09/19 05:50:21;;;;;;;12.00;9.23;;;10.70;96.40;;;;;;5033276;28;20261;-57
2021/09/19 05:52:48;;;;;;;10.83;9.00;;;10.70;98.40;;;;;;5033135;28;20210;-57
2021/09/19 05:55:15;;;;;;;10.83;9.00;;;10.70;99.90;;;;;;5033146;28;20284;-57
2021/09/19 05:57:41;;;;;;;11.90;8.97;;;10.70;99.90;;;;;;5033065;28;20642;-58
2021/09/19 06:00:11;;;;;;;12.13;8.93;;;10.80;98.60;;;;;;5032709;28;20728;-58
2021/09/19 06:02:38;;;;;;;11.67;9.00;;;10.80;98.70;;;;;;5032551;28;20284;-54
2021/09/19 06:05:06;;;;;;;12.30;9.20;;;10.90;95.10;;;;;;5032542;28;20280;-57
2021/09/19 06:07:33;;;;;;;11.30;8.83;;;10.90;94.80;;;;;;5032837;28;20226;-58
2021/09/19 06:10:00;;;;;;;12.37;9.57;;;10.90;95.80;;;;;;5032976;28;20202;-58
2021/09/19 06:12:26;;;;;;;11.93;9.13;;;11.00;90.50;;;;;;5032759;28;20284;-55
2021/09/19 06:14:53;;;;;;;11.60;9.10;;;11.00;90.90;;;;;;5032226;28;20368;-58
2021/09/19 06:17:21;;;;;;;11.97;8.57;;;11.10;91.90;;;;;;5032588;28;20237;-58
2021/09/19 06:19:48;;;;;;;11.70;9.67;;;11.10;92.70;;;;;;5032429;28;20251;-58
2021/09/19 06:22:15;;;;;;;13.43;9.33;;;11.20;96.10;;;;;;5011168;28;20265;-59
2021/09/19 06:24:42;;;;;;;11.83;9.57;;;11.20;99.90;;;;;;5012388;28;20286;-59
2021/09/19 06:27:12;;;;;;;12.10;9.23;;;11.40;99.50;;;;;;5012409;28;20596;-59
2021/09/19 06:29:38;;;;;;;11.97;9.00;;;11.40;99.90;;;;;;5012456;28;20734;-59
2021/09/19 06:32:07;;;;;;;14.47;9.23;;;11.50;99.90;;;;;;5012597;28;20690;-59
2021/09/19 06:34:35;;;;;;;10.87;8.60;;;11.60;99.90;;;;;;5012526;28;20235;-59
2021/09/19 06:37:02;;;;;;;9.77;8.37;;;11.80;87.40;;;;;;5027659;28;20230;-59
2021/09/19 06:39:29;;;;;;;10.97;8.50;;;11.90;90.60;;;;;;5031945;28;20616;-59
2021/09/19 06:41:56;;;;;;;10.90;8.47;;;12.00;76.10;;;;;;5031901;28;20258;-59
2021/09/19 06:44:23;;;;;;;10.83;8.87;;;12.10;66.60;;;;;;5032178;28;20223;-59
2021/09/19 06:46:52;;;;;;;9.53;7.90;;;12.10;72.90;;;;;;5032068;28;20223;-58
2021/09/19 06:49:18;;;;;;;8.17;7.37;;;12.20;80.00;;;;;;5032165;28;20203;-63
2021/09/19 06:51:47;;;;;;;9.33;7.60;;;12.20;58.30;;;;;;5032064;28;20263;-61
2021/09/19 06:54:13;;;;;;;8.50;7.60;;;12.30;55.30;;;;;;5032071;28;20248;-60
2021/09/19 06:56:40;;;;;;;11.73;8.10;;;12.40;54.80;;;;;;5031735;28;20286;-60
2021/09/19 06:59:07;;;;;;;11.03;7.80;;;12.50;53.40;;;;;;5032162;28;20341;-60
2021/09/19 07:01:34;;;;;;;8.50;7.33;;;12.50;58.20;;;;;;5031989;28;20209;-60
2021/09/19 07:04:00;;;;;;;9.43;7.77;;;12.60;64.50;;;;;;5031788;28;20309;-60
2021/09/19 07:06:27;;;;;;;18.97;14.63;;;12.70;64.60;;;;;;5031368;28;20229;-60
2021/09/19 07:08:55;;;;;;;12.27;9.53;;;12.80;30.00;;;;;;5031498;28;20214;-60
2021/09/19 07:11:22;;;;;;;8.00;6.80;;;12.80;4.50;;;;;;5031837;28;20209;-60
2021/09/19 07:13:48;;;;;;;6.83;6.13;;;13.00;1.00;;;;;;5031803;28;20206;-60
2021/09/19 07:16:15;;;;;;;6.33;5.63;;;13.00;1.00;;;;;;5035268;28;20230;-63
2021/09/19 07:18:43;;;;;;;6.37;5.77;;;13.10;1.00;;;;;;5035463;28;20210;-65
2021/09/19 07:21:10;;;;;;;7.07;5.00;;;13.20;99.90;;;;;;5035880;28;20569;-66
2021/09/19 07:23:37;;;;;;;7.07;5.23;;;13.30;99.90;;;;;;5026121;28;20209;-62
2021/09/19 07:26:04;;;;;;;6.30;5.70;;;13.40;99.90;;;;;;5020180;28;20207;-63
2021/09/19 07:28:32;;;;;;;6.07;5.47;;;13.50;1.00;;;;;;5015698;28;20695;-62
2021/09/19 07:30:59;;;;;;;9.37;6.80;;;13.60;99.90;;;;;;5015383;28;20211;-62
2021/09/19 07:33:26;;;;;;;7.43;6.60;;;13.70;99.90;;;;;;5015291;28;20210;-61
2021/09/19 07:35:53;;;;;;;7.30;6.37;;;13.80;2.80;;;;;;5015021;28;20587;-61
2021/09/19 07:38:21;;;;;;;6.13;5.53;;;13.90;99.90;;;;;;5015519;28;20211;-62
2021/09/19 07:40:48;;;;;;;9.03;5.40;;;14.00;99.90;;;;;;5015485;28;20215;-62
2021/09/19 07:43:16;;;;;;;7.23;5.60;;;14.10;99.90;;;;;;5015032;28;20794;-62
2021/09/19 07:45:43;;;;;;;7.30;5.17;;;14.20;1.00;;;;;;5014880;28;20237;-64
2021/09/19 07:48:12;;;;;;;5.57;4.90;;;14.30;99.90;;;;;;5015156;28;20242;-62
2021/09/19 07:50:41;;;;;;;4.53;4.10;;;14.40;1.00;;;;;;5014928;28;20302;-64
2021/09/19 07:53:07;;;;;;;5.03;4.53;;;14.50;99.90;;;;;;5014601;28;20690;-62
2021/09/19 07:55:34;;;;;;;5.37;4.43;;;14.60;1.00;;;;;;5014891;28;20611;-62
2021/09/19 07:58:02;;;;;;;5.27;4.30;;;14.70;96.00;;;;;;5014782;28;20325;-62
2021/09/19 08:00:31;;;;;;;5.30;4.27;;;14.80;99.90;;;;;;5014874;28;20225;-62
2021/09/19 08:02:58;;;;;;;5.57;4.40;;;14.90;99.90;;;;;;5014449;28;20676;-63
2021/09/19 08:05:25;;;;;;;5.47;4.37;;;14.90;81.90;;;;;;5014315;28;20231;-62
2021/09/19 08:07:52;;;;;;;5.93;4.87;;;14.90;99.90;;;;;;5014771;28;20223;-63
2021/09/19 08:10:20;;;;;;;6.33;4.43;;;15.00;99.90;;;;;;5014626;28;20675;-63
2021/09/19 08:12:48;;;;;;;6.40;4.37;;;15.10;1.00;;;;;;5014591;28;20210;-62
2021/09/19 08:15:15;;;;;;;5.13;4.50;;;15.20;1.00;;;;;;5014042;28;20203;-62
2021/09/19 08:17:43;;;;;;;4.87;4.40;;;15.40;20.40;;;;;;5014447;28;20226;-62
2021/09/19 08:20:11;;;;;;;4.57;4.17;;;15.50;99.90;;;;;;5014642;28;20577;-62
2021/09/19 08:22:38;;;;;;;5.37;4.40;;;15.60;99.90;;;;;;5014344;28;20848;-63
2021/09/19 08:25:06;;;;;;;5.37;4.03;;;15.70;1.00;;;;;;5013925;28;20265;-63
2021/09/19 08:27:34;;;;;;;4.80;3.83;;;15.80;99.90;;;;;;5013689;28;20227;-62
2021/09/19 08:30:01;;;;;;;4.13;3.60;;;15.90;4.50;;;;;;5014286;28;20207;-65
2021/09/19 08:32:28;;;;;;;4.33;3.90;;;16.10;34.80;;;;;;5014011;28;20293;-65
2021/09/19 08:34:57;;;;;;;6.47;4.00;;;16.10;99.90;;;;;;5014032;28;20211;-62
2021/09/19 08:37:24;;;;;;;4.60;4.10;;;16.20;99.90;;;;;;5014191;28;20230;-62
2021/09/19 08:39:51;;;;;;;6.20;3.80;;;16.20;99.90;;;;;;5014309;28;20674;-60
2021/09/19 08:42:19;;;;;;;4.77;3.80;;;16.30;99.90;;;;;;5013956;28;20679;-62
2021/09/19 08:44:46;;;;;;;5.83;4.47;;;16.30;1.00;;;;;;5013381;28;20714;-62
2021/09/19 08:47:13;;;;;;;4.73;3.80;;;16.30;1.00;;;;;;5014023;28;20289;-63
2021/09/19 08:49:41;;;;;;;5.73;4.63;;;16.30;1.00;;;;;;5014016;28;20253;-63
2021/09/19 08:52:10;;;;;;;5.40;4.27;;;16.30;1.00;;;;;;5014064;28;20211;-62
2021/09/19 08:54:37;;;;;;;4.77;4.03;;;16.50;1.00;;;;;;5013806;28;20203;-63
2021/09/19 08:57:04;;;;;;;5.43;4.43;;;16.60;1.00;;;;;;5013905;28;20293;-63
2021/09/19 08:59:43;;;;;;;5.30;4.37;;;16.70;99.90;;;;;;5014045;28;20210;-63
2021/09/19 09:02:10;;;;;;;5.00;4.50;;;16.80;99.90;;;;;;5014161;28;20203;-63
2021/09/19 09:04:39;;;;;;;5.20;3.87;;;16.90;99.90;;;;;;5013328;28;20235;-63
2021/09/19 09:07:06;;;;;;;4.83;4.23;;;17.00;99.90;;;;;;5013589;28;20229;-64
2021/09/19 09:09:34;;;;;;;5.50;4.00;;;17.20;99.90;;;;;;5013521;28;20583;-64
2021/09/19 09:12:03;;;;;;;5.63;4.53;;;17.20;80.30;;;;;;5013371;28;20242;-64
2021/09/19 09:14:30;;;;;;;5.77;4.03;;;17.20;99.90;;;;;;5013456;28;20207;-64
2021/09/19 09:17:11;;;;;;;6.67;4.47;;;17.10;99.90;;;;;;5013183;28;20227;-63
2021/09/19 09:19:39;;;;;;;6.07;4.50;;;17.10;99.90;;;;;;5013399;28;20302;-63
2021/09/19 09:22:05;;;;;;;7.57;5.10;;;17.20;99.90;;;;;;5013143;28;20215;-63
2021/09/19 09:24:36;;;;;;;5.10;4.53;;;17.30;99.90;;;;;;5012762;28;20597;-64
2021/09/19 09:27:18;;;;;;;6.70;4.60;;;17.30;99.90;;;;;;5013131;28;20715;-64
2021/09/19 09:30:07;;;;;;;6.13;5.07;;;17.20;38.30;;;;;;5013332;28;20721;-63
2021/09/19 09:32:49;;;;;;;6.17;5.10;;;17.10;51.80;;;;;;5013040;28;20207;-63
2021/09/19 09:35:16;;;;;;;5.57;4.83;;;17.20;99.90;;;;;;5013123;28;20211;-62
2021/09/19 09:37:43;;;;;;;6.53;5.60;;;17.30;99.90;;;;;;5012010;28;20234;-61
2021/09/19 09:40:17;;;;;;;5.80;4.53;;;17.40;88.00;;;;;;5013027;28;20203;-61
2021/09/19 09:43:03;;;;;;;6.67;4.37;;;17.40;96.40;;;;;;5013045;28;20206;-61
2021/09/19 09:45:31;;;;;;;6.20;4.97;;;17.40;9.10;;;;;;5012877;28;20234;-62
2021/09/19 09:47:58;;;;;;;6.70;5.00;;;17.60;1.00;;;;;;5013012;28;20226;-63
2021/09/19 09:50:26;;;;;;;6.47;5.40;;;17.60;1.00;;;;;;5013173;28;20232;-62
2021/09/19 09:53:06;;;;;;;5.77;5.13;;;17.70;62.60;;;;;;5012798;28;20222;-62
2021/09/19 09:55:34;;;;;;;6.17;5.37;;;17.90;1.00;;;;;;5012367;28;20230;-62
2021/09/19 09:58:08;;;;;;;10.07;5.40;;;18.00;1.00;;;;;;5012635;28;20293;-62
2021/09/19 10:00:36;;;;;;;8.33;5.50;;;18.00;1.00;;;;;;5012740;28;20743;-62
2021/09/19 10:03:03;;;;;;;5.93;4.57;;;18.20;1.00;;;;;;5012616;28;20211;-62
2021/09/19 10:05:30;;;;;;;5.13;4.57;;;18.30;1.00;;;;;;5012192;28;20227;-62
2021/09/19 10:07:58;;;;;;;6.77;4.63;;;18.40;1.00;;;;;;5012507;28;20235;-61
2021/09/19 10:10:27;;;;;;;5.73;4.60;;;18.30;1.00;;;;;;5012916;28;20211;-62
2021/09/19 10:12:58;;;;;;;7.07;5.27;;;18.40;1.00;;;;;;5012403;28;20266;-62
2021/09/19 10:15:26;;;;;;;7.07;5.17;;;18.40;1.00;;;;;;5012395;28;20211;-62
2021/09/19 10:17:53;;;;;;;7.40;5.10;;;18.50;1.00;;;;;;5012381;28;20231;-62
2021/09/19 10:20:22;;;;;;;5.97;5.30;;;18.60;1.00;;;;;;5012741;28;20284;-62
2021/09/19 10:22:55;;;;;;;5.73;4.87;;;18.60;1.00;;;;;;5011861;28;20212;-62
2021/09/19 10:25:43;;;;;;;6.50;4.57;;;18.60;1.00;;;;;;5012332;28;20231;-62
2021/09/19 10:28:39;;;;;;;8.23;5.00;;;18.60;1.00;;;;;;5012270;28;20237;-62
2021/09/19 10:31:21;;;;;;;5.40;4.90;;;18.60;1.00;;;;;;4977674;28;20214;-62
2021/09/19 10:33:53;;;;;;;4.60;4.20;;;18.80;1.00;;;;;;5012265;28;20277;-62
2021/09/19 10:36:39;;;;;;;5.27;4.43;;;18.80;1.00;;;;;;5012178;28;20226;-62
2021/09/19 10:39:21;;;;;;;5.90;4.70;;;19.00;1.00;;;;;;5002837;28;20214;-62
2021/09/19 10:42:17;;;;;;;4.50;4.00;;;19.10;1.00;;;;;;5012379;28;20206;-62
2021/09/19 10:45:13;;;;;;;6.60;4.30;;;19.00;1.00;;;;;;5011549;28;20322;-62
2021/09/19 10:47:46;;;;;;;4.53;4.00;;;19.00;1.00;;;;;;5011821;28;20231;-62
2021/09/19 10:50:20;;;;;;;5.40;3.97;;;18.90;1.00;;;;;;5011638;28;20672;-62
2021/09/19 10:52:48;;;;;;;5.30;4.70;;;18.90;1.00;;;;;;5011845;28;20207;-62
2021/09/19 10:55:28;;;;;;;5.70;4.80;;;18.90;1.00;;;;;;5011679;28;20200;-62
2021/09/19 10:57:58;;;;;;;5.67;4.30;;;18.90;1.00;;;;;;5011739;28;20238;-62
2021/09/19 11:00:28;;;;;;;7.13;4.90;;;19.00;1.00;;;;;;5012182;28;20213;-62
2021/09/19 11:03:07;;;;;;;9.67;7.37;;;19.10;1.00;;;;;;5011714;28;20218;-62
2021/09/19 11:05:35;;;;;;;4.50;4.10;;;19.10;1.00;;;;;;5011423;28;20633;-62
2021/09/19 11:08:16;;;;;;;6.10;5.30;;;19.10;1.00;;;;;;5011729;28;20318;-62
2021/09/19 11:11:06;;;;;;;5.67;5.07;;;19.10;1.00;;;;;;5011751;28;20242;-62
2021/09/19 11:13:38;;;;;;;4.80;4.23;;;18.90;1.00;;;;;;5011534;28;20214;-64
2021/09/19 11:16:19;;;;;;;5.83;4.50;;;18.90;1.00;;;;;;5011553;28;20297;-60
2021/09/19 11:18:47;;;;;;;5.57;4.73;;;18.80;1.00;;;;;;5011561;28;20206;-61
2021/09/19 11:21:15;;;;;;;5.33;4.13;;;18.50;1.00;;;;;;5011834;28;20265;-64
2021/09/19 11:23:46;;;;;;;6.33;4.90;;;18.50;1.00;;;;;;5011500;28;20213;-63
2021/09/19 11:26:15;;;;;;;6.73;4.83;;;18.50;1.00;;;;;;5011419;28;20230;-63
2021/09/19 11:28:42;;;;;;;4.70;4.20;;;18.60;1.00;;;;;;5014394;28;20203;-62
2021/09/19 11:31:09;;;;;;;5.10;4.60;;;18.70;1.00;;;;;;5012423;28;20242;-64
2021/09/19 11:33:37;;;;;;;4.60;3.90;;;18.90;1.00;;;;;;5011102;28;20625;-63
2021/09/19 11:36:06;;;;;;;5.10;3.90;;;18.80;1.00;;;;;;5011138;28;20230;-64
2021/09/19 11:38:35;;;;;;;5.10;4.20;;;18.70;1.00;;;;;;5011653;28;20210;-64
2021/09/19 11:41:03;;;;;;;5.00;3.77;;;18.70;1.00;;;;;;5011447;28;20211;-64
2021/09/19 11:43:30;;;;;;;5.83;3.57;;;18.80;1.00;;;;;;5011323;28;20273;-64
2021/09/19 11:45:56;;;;;;;4.43;3.40;;;18.90;1.00;;;;;;5010547;28;20223;-63
2021/09/19 11:48:24;;;;;;;8.97;3.67;;;18.80;1.00;;;;;;5011775;28;20207;-64
2021/09/19 11:50:52;;;;;;;5.57;3.40;;;18.90;1.00;;;;;;5011384;28;20269;-63
2021/09/19 11:53:19;;;;;;;3.70;3.00;;;18.90;1.00;;;;;;5011220;28;20206;-64
2021/09/19 11:55:47;;;;;;;5.30;2.77;;;18.90;1.00;;;;;;5010920;28;20617;-63
2021/09/19 11:58:15;;;;;;;3.43;3.03;;;18.70;1.00;;;;;;5011141;28;20211;-64
2021/09/19 12:00:42;;;;;;;1.70;1.50;;;18.70;1.00;;;;;;5011349;28;20307;-62
2021/09/19 12:03:09;;;;;;;2.43;1.50;;;18.70;1.00;;;;;;5014497;28;20686;-61
2021/09/19 12:05:36;;;;;;;2.00;1.40;;;18.70;1.00;;;;;;5014726;28;20231;-62
2021/09/19 12:08:04;;;;;;;2.87;1.73;;;18.60;99.90;;;;;;5030043;28;20276;-61
2021/09/19 12:10:32;;;;;;;2.97;1.43;;;18.60;99.90;;;;;;5034245;28;20206;-62
2021/09/19 12:12:59;;;;;;;2.13;1.20;;;18.60;1.00;;;;;;5033981;28;20264;-61
2021/09/19 12:15:27;;;;;;;1.70;1.30;;;18.80;1.00;;;;;;5034348;28;20234;-62
2021/09/19 12:18:07;;;;;;;2.73;1.50;;;18.80;1.00;;;;;;5034420;28;20357;-63
2021/09/19 12:20:34;;;;;;;4.43;1.50;;;18.90;1.00;;;;;;5034534;28;20594;-65
2021/09/19 12:23:20;;;;;;;1.50;1.37;;;19.00;1.00;;;;;;5034148;28;20202;-63
2021/09/19 12:25:48;;;;;;;1.70;1.40;;;19.00;1.00;;;;;;5033754;28;20673;-63
2021/09/19 12:28:31;;;;;;;2.10;1.60;;;18.90;99.90;;;;;;5034555;28;20210;-61
2021/09/19 12:30:58;;;;;;;1.80;1.63;;;18.70;99.90;;;;;;5034535;28;20195;-62
2021/09/19 12:33:25;;;;;;;2.73;1.50;;;18.80;99.90;;;;;;5034132;28;20206;-62
2021/09/19 12:35:51;;;;;;;2.23;1.47;;;18.80;99.90;;;;;;5033605;28;20260;-62
2021/09/19 12:38:23;;;;;;;4.43;1.60;;;18.90;99.90;;;;;;5034062;28;20909;-63
2021/09/19 12:40:51;;;;;;;2.63;1.70;;;19.00;99.90;;;;;;5034100;28;20206;-62
2021/09/19 12:43:18;;;;;;;1.90;1.50;;;19.10;99.90;;;;;;5033944;28;20273;-62
2021/09/19 12:45:50;;;;;;;2.33;1.80;;;18.90;99.90;;;;;;5033643;28;20268;-62
2021/09/19 12:48:23;;;;;;;2.37;1.70;;;18.80;99.90;;;;;;5034041;28;20202;-62
2021/09/19 12:50:56;;;;;;;3.23;1.47;;;18.80;99.90;;;;;;5034055;28;20210;-62
2021/09/19 12:53:26;;;;;;;1.90;1.70;;;19.00;99.90;;;;;;5033712;28;20210;-62
2021/09/19 12:55:53;;;;;;;2.30;1.90;;;19.10;1.00;;;;;;5033291;28;20202;-62